createdAt,value
2024-03-07T00:00:02.545Z,0
2024-03-07T00:15:02.997Z,0
2024-03-07T00:30:02.434Z,0
2024-03-07T00:45:02.849Z,0
2024-03-07T01:00:02.359Z,0
2024-03-07T01:15:02.801Z,0
2024-03-07T01:30:02.306Z,0
2024-03-07T01:45:02.551Z,0
2024-03-07T02:00:03.027Z,0
2024-03-07T02:15:02.547Z,0
2024-03-07T02:30:02.859Z,0
2024-03-07T02:45:02.327Z,0
2024-03-07T03:00:02.746Z,0
2024-03-07T03:15:03.329Z,0
2024-03-07T03:30:02.791Z,0
2024-03-07T03:45:02.313Z,0
2024-03-07T04:00:02.538Z,0
2024-03-07T04:15:02.968Z,0
2024-03-07T04:30:02.400Z,0
2024-03-07T04:45:02.804Z,0
2024-03-07T05:00:03.361Z,0
2024-03-07T05:15:02.793Z,0
2024-03-07T05:30:02.388Z,0
2024-03-07T05:45:02.643Z,0
2024-03-07T06:00:03.104Z,0
2024-03-07T06:15:02.609Z,3
2024-03-07T06:30:02.931Z,8
2024-03-07T06:45:02.419Z,13
2024-03-07T07:00:02.884Z,19
2024-03-07T07:15:02.436Z,23
2024-03-07T07:30:02.696Z,36
2024-03-07T07:45:03.168Z,44
2024-03-07T08:00:02.551Z,97
2024-03-07T08:15:02.967Z,57
2024-03-07T08:30:02.466Z,65
2024-03-07T08:45:02.895Z,114
2024-03-07T09:00:02.542Z,70
2024-03-07T09:15:02.765Z,89
2024-03-07T09:30:02.188Z,101
2024-03-07T09:45:02.648Z,102
2024-03-07T10:00:03.049Z,93
2024-03-07T10:15:02.526Z,109
2024-03-07T10:30:03.049Z,107
2024-03-07T10:45:02.602Z,117
2024-03-07T11:00:02.878Z,120
2024-03-07T11:15:02.571Z,163
2024-03-07T11:30:03.922Z,174
2024-03-07T12:00:02.670Z,192
2024-03-07T12:15:03.035Z,134
2024-03-07T12:30:02.617Z,50
2024-03-07T12:45:03.007Z,73
2024-03-07T13:00:02.652Z,89
2024-03-07T13:30:02.228Z,202
2024-03-07T13:45:02.722Z,301
2024-03-07T14:00:03.208Z,108
2024-03-07T14:15:04.201Z,158
2024-03-07T14:30:03.001Z,306
2024-03-07T14:45:05.985Z,92
2024-03-07T15:00:04.515Z,65
2024-03-07T15:15:10.950Z,118
2024-03-07T15:30:02.842Z,123
2024-03-07T15:45:02.172Z,70
2024-03-07T16:00:02.664Z,42
2024-03-07T16:15:03.084Z,45
2024-03-07T16:30:02.556Z,50
2024-03-07T16:45:02.965Z,11
2024-03-07T17:00:02.562Z,3
2024-03-07T17:15:02.861Z,0
2024-03-07T17:30:02.318Z,0
2024-03-07T17:45:02.733Z,0
2024-03-07T18:00:03.382Z,0
2024-03-07T18:15:13.330Z,0
2024-03-07T18:30:03.054Z,0
2024-03-07T18:45:02.653Z,0
2024-03-07T19:00:02.927Z,0
2024-03-07T19:15:02.670Z,0
2024-03-07T19:30:02.949Z,0
2024-03-07T19:45:02.272Z,0
2024-03-07T20:00:02.760Z,0
2024-03-07T20:15:03.150Z,0
2024-03-07T20:30:02.610Z,0
2024-03-07T20:45:03.122Z,0
2024-03-07T21:00:02.672Z,0
2024-03-07T21:30:02.372Z,0
2024-03-07T21:45:02.907Z,0
2024-03-07T22:15:02.702Z,0
2024-03-07T22:30:01.996Z,0
2024-03-07T22:45:02.728Z,0
2024-03-07T23:00:03.249Z,0
2024-03-07T23:15:03.379Z,0
2024-03-07T23:30:02.835Z,0
2024-03-07T23:45:02.251Z,0
